createdAt,value
2019-03-01T00:01:10.161Z,3.53
2019-03-01T00:03:37.718Z,5.43
2019-03-01T00:09:31.702Z,21.02
2019-03-01T00:12:17.771Z,3.73
2019-03-01T00:15:12.035Z,3.73
2019-03-01T00:18:00.080Z,17.07
2019-03-01T00:20:36.132Z,7.30
2019-03-01T00:26:07.157Z,5.12
2019-03-01T00:28:38.208Z,7.07
2019-03-01T00:31:18.293Z,7.83
2019-03-01T00:33:49.090Z,5.60
2019-03-01T00:36:38.203Z,7.30
2019-03-01T00:39:25.463Z,5.10
2019-03-01T00:41:53.811Z,3.10
2019-03-01T00:44:30.895Z,5.40
2019-03-01T00:46:58.455Z,3.93
2019-03-01T00:49:25.992Z,10.10
2019-03-01T00:51:53.553Z,5.40
2019-03-01T00:54:21.087Z,3.03
2019-03-01T00:56:48.619Z,4.13
2019-03-01T00:59:16.186Z,2.90
2019-03-01T01:01:43.750Z,11.40
2019-03-01T01:04:11.283Z,5.03
2019-03-01T01:06:38.819Z,4.57
2019-03-01T01:09:06.462Z,15.33
2019-03-01T01:11:33.999Z,4.73
2019-03-01T01:14:01.560Z,4.80
2019-03-01T01:16:29.092Z,6.97
2019-03-01T01:18:56.679Z,6.27
2019-03-01T01:21:24.214Z,13.87
2019-03-01T01:23:52.544Z,3.10
2019-03-01T01:26:20.076Z,6.77
2019-03-01T01:28:47.634Z,2.60
2019-03-01T01:31:15.193Z,3.60
2019-03-01T01:33:42.754Z,3.27
2019-03-01T01:36:10.287Z,3.23
2019-03-01T01:38:37.847Z,3.30
2019-03-01T01:41:05.391Z,3.60
2019-03-01T01:43:33.716Z,4.03
2019-03-01T01:46:01.281Z,6.03
2019-03-01T01:48:28.833Z,4.10
2019-03-01T01:50:56.372Z,6.10
2019-03-01T01:53:24.911Z,3.47
2019-03-01T01:55:52.462Z,4.30
2019-03-01T01:58:19.983Z,3.10
2019-03-01T02:00:47.541Z,10.00
2019-03-01T02:03:15.071Z,4.40
2019-03-01T02:05:42.622Z,6.87
2019-03-01T02:08:10.146Z,5.73
2019-03-01T02:10:37.703Z,5.13
2019-03-01T02:13:05.227Z,5.80
2019-03-01T02:15:32.757Z,3.97
2019-03-01T02:18:00.310Z,11.50
2019-03-01T02:20:27.851Z,18.70
2019-03-01T02:22:55.407Z,10.63
2019-03-01T02:25:22.930Z,6.93
2019-03-01T02:27:50.499Z,3.37
2019-03-01T02:30:20.892Z,4.43
2019-03-01T02:32:48.453Z,3.03
2019-03-01T02:35:15.991Z,5.63
2019-03-01T02:37:43.547Z,4.73
2019-03-01T02:40:11.722Z,3.57
2019-03-01T02:42:39.261Z,4.30
2019-03-01T02:45:07.767Z,8.27
2019-03-01T02:47:35.325Z,4.40
2019-03-01T02:50:02.852Z,2.70
2019-03-01T02:52:30.404Z,2.70
2019-03-01T02:54:57.966Z,4.20
2019-03-01T02:57:25.496Z,4.03
2019-03-01T02:59:53.071Z,4.63
2019-03-01T03:02:20.604Z,6.83
2019-03-01T03:04:48.164Z,2.30
2019-03-01T03:07:18.139Z,15.53
2019-03-01T03:09:45.695Z,2.03
2019-03-01T03:12:13.232Z,14.20
2019-03-01T03:14:40.787Z,8.87
2019-03-01T03:22:51.547Z,9.63
2019-03-01T03:25:19.112Z,8.80
2019-03-01T03:27:46.639Z,2.17
2019-03-01T03:30:15.128Z,1.20
2019-03-01T03:32:42.701Z,6.60
2019-03-01T03:35:10.241Z,12.70
2019-03-01T03:37:37.795Z,2.30
2019-03-01T03:40:06.083Z,3.40
2019-03-01T03:42:34.639Z,5.30
2019-03-01T03:45:02.167Z,3.37
2019-03-01T03:47:29.736Z,3.57
2019-03-01T03:49:57.263Z,2.30
2019-03-01T03:52:24.818Z,3.30
2019-03-01T03:54:52.350Z,2.97
2019-03-01T03:57:19.907Z,2.50
2019-03-01T03:59:47.444Z,1.80
2019-03-01T04:02:14.986Z,2.67
2019-03-01T04:04:42.547Z,1.40
2019-03-01T04:07:10.108Z,2.87
2019-03-01T04:09:37.661Z,3.70
2019-03-01T04:12:05.195Z,1.40
2019-03-01T04:14:32.793Z,4.40
2019-03-01T04:17:00.331Z,3.20
2019-03-01T04:19:27.875Z,1.80
2019-03-01T04:21:55.405Z,1.67
2019-03-01T04:24:22.960Z,2.20
2019-03-01T04:26:50.494Z,1.73
2019-03-01T04:29:18.048Z,5.70
2019-03-01T04:31:46.352Z,2.27
2019-03-01T04:34:13.878Z,3.53
2019-03-01T04:36:41.426Z,1.93
2019-03-01T04:39:08.950Z,3.20
2019-03-01T04:41:36.503Z,1.97
2019-03-01T04:44:04.032Z,1.80
2019-03-01T04:46:32.347Z,1.70
2019-03-01T04:48:59.871Z,2.07
2019-03-01T04:51:27.422Z,2.43
2019-03-01T04:53:54.949Z,2.33
2019-03-01T04:56:22.511Z,4.13
2019-03-01T04:58:50.046Z,3.40
2019-03-01T05:01:17.781Z,12.63
2019-03-01T05:03:45.336Z,3.60
2019-03-01T05:06:12.867Z,4.47
2019-03-01T05:08:40.423Z,4.30
2019-03-01T05:11:08.718Z,7.43
2019-03-01T05:13:36.243Z,2.87
2019-03-01T05:16:04.563Z,6.70
2019-03-01T05:18:32.112Z,4.73
2019-03-01T05:20:59.744Z,7.37
2019-03-01T05:23:27.299Z,16.10
2019-03-01T05:25:55.618Z,6.70
2019-03-01T05:28:23.914Z,2.77
2019-03-01T05:30:51.471Z,5.70
2019-03-01T05:33:19.003Z,6.70
2019-03-01T05:35:46.559Z,4.70
2019-03-01T05:38:21.502Z,4.50
2019-03-01T05:40:41.695Z,4.20
2019-03-01T05:43:09.223Z,7.77
2019-03-01T05:45:36.770Z,2.47
2019-03-01T05:48:04.295Z,2.83
2019-03-01T05:50:32.628Z,2.70
2019-03-01T05:53:00.152Z,1.87
2019-03-01T05:55:27.719Z,3.27
2019-03-01T05:58:16.069Z,1.77
2019-03-01T06:00:34.713Z,2.13
2019-03-01T06:03:08.779Z,2.67
2019-03-01T06:05:36.331Z,2.33
2019-03-01T06:08:05.786Z,6.07
2019-03-01T06:10:35.886Z,5.87
2019-03-01T06:16:04.810Z,7.35
2019-03-01T06:18:56.131Z,3.63
2019-03-01T06:24:46.219Z,5.28
2019-03-01T06:27:36.384Z,7.27
2019-03-01T06:36:30.150Z,3.85
2019-03-01T06:39:23.917Z,3.83
2019-03-01T06:41:52.215Z,2.10
2019-03-01T06:47:41.743Z,2.28
2019-03-01T06:50:26.739Z,2.17
2019-03-01T06:52:54.267Z,2.80
2019-03-01T06:55:40.489Z,1.93
2019-03-01T06:58:08.023Z,2.70
2019-03-01T07:00:36.217Z,3.93
2019-03-01T07:03:03.771Z,2.60
2019-03-01T07:05:31.298Z,1.47
2019-03-01T07:07:58.847Z,1.07
2019-03-01T07:10:26.382Z,1.17
2019-03-01T07:12:54.903Z,1.40
2019-03-01T07:15:22.435Z,2.70
2019-03-01T07:17:49.982Z,3.00
2019-03-01T07:20:17.508Z,1.27
2019-03-01T07:22:46.063Z,1.30
2019-03-01T07:25:13.599Z,1.40
2019-03-01T07:27:41.154Z,3.07
2019-03-01T07:30:08.687Z,1.20
2019-03-01T07:32:36.250Z,1.80
2019-03-01T07:35:03.810Z,1.80
2019-03-01T07:37:32.120Z,6.10
2019-03-01T07:39:59.683Z,18.80
2019-03-01T07:42:27.211Z,4.43
2019-03-01T07:44:54.768Z,4.33
2019-03-01T07:47:22.297Z,4.60
2019-03-01T07:49:49.843Z,3.00
2019-03-01T07:52:17.376Z,2.90
2019-03-01T07:54:44.940Z,5.23
2019-03-01T07:57:14.769Z,3.70
2019-03-01T07:59:40.063Z,3.83
2019-03-01T08:02:07.599Z,4.57
2019-03-01T08:04:35.158Z,2.27
2019-03-01T08:07:02.727Z,2.90
2019-03-01T08:09:30.261Z,2.70
2019-03-01T08:11:57.815Z,4.40
2019-03-01T08:14:28.079Z,4.90
2019-03-01T08:16:56.068Z,2.77
2019-03-01T08:19:23.457Z,2.70
2019-03-01T08:21:49.893Z,2.30
2019-03-01T08:24:16.803Z,2.47
2019-03-01T08:26:44.360Z,2.77
2019-03-01T08:29:12.651Z,2.20
2019-03-01T08:31:40.203Z,1.80
2019-03-01T08:34:07.726Z,2.00
2019-03-01T08:36:38.701Z,1.60
2019-03-01T08:39:04.900Z,1.73
2019-03-01T08:41:30.447Z,1.70
2019-03-01T08:43:58.011Z,1.70
2019-03-01T08:46:26.907Z,1.60
2019-03-01T08:48:53.130Z,1.60
2019-03-01T08:51:22.548Z,1.50
2019-03-01T08:53:50.775Z,1.43
2019-03-01T08:56:15.830Z,1.10
2019-03-01T08:58:43.388Z,1.43
2019-03-01T09:01:11.747Z,1.20
2019-03-01T09:03:55.043Z,1.10
2019-03-01T09:06:22.574Z,1.13
2019-03-01T09:08:50.131Z,0.90
2019-03-01T09:11:18.461Z,1.00
2019-03-01T09:13:46.016Z,1.30
2019-03-01T09:16:13.548Z,1.20
2019-03-01T09:18:42.091Z,1.00
2019-03-01T09:21:12.239Z,1.10
2019-03-01T09:23:37.223Z,1.20
2019-03-01T09:26:04.785Z,1.20
2019-03-01T09:28:38.591Z,0.97
2019-03-01T09:31:00.683Z,1.23
2019-03-01T09:33:28.229Z,0.97
2019-03-01T09:35:56.299Z,1.10
2019-03-01T09:38:23.847Z,1.20
2019-03-01T09:40:51.375Z,1.40
2019-03-01T09:43:19.899Z,1.03
2019-03-01T09:45:48.766Z,1.50
2019-03-01T09:48:15.059Z,1.37
2019-03-01T09:50:42.588Z,1.30
2019-03-01T09:53:10.135Z,1.10
2019-03-01T09:55:38.561Z,1.00
2019-03-01T09:58:05.260Z,1.03
2019-03-01T10:00:32.783Z,1.23
2019-03-01T10:03:00.347Z,1.20
2019-03-01T10:05:27.878Z,1.13
2019-03-01T10:07:55.407Z,2.13
2019-03-01T10:10:22.972Z,1.10
2019-03-01T10:12:51.275Z,1.40
2019-03-01T10:15:18.825Z,1.20
2019-03-01T10:17:46.353Z,1.37
2019-03-01T10:20:13.911Z,1.30
2019-03-01T10:22:41.435Z,1.20
2019-03-01T10:25:09.759Z,1.50
2019-03-01T10:27:37.286Z,1.20
2019-03-01T10:30:04.838Z,1.10
2019-03-01T10:32:32.368Z,1.10
2019-03-01T10:34:59.918Z,1.30
2019-03-01T10:37:27.440Z,1.00
2019-03-01T10:39:55.959Z,1.20
2019-03-01T10:42:23.491Z,1.50
2019-03-01T10:44:51.047Z,1.37
2019-03-01T10:47:18.610Z,1.20
2019-03-01T10:49:46.163Z,1.20
2019-03-01T10:52:13.691Z,1.10
2019-03-01T10:54:41.982Z,1.07
2019-03-01T10:57:09.531Z,1.30
2019-03-01T10:59:37.828Z,1.10
2019-03-01T11:02:05.379Z,1.10
2019-03-01T11:04:33.923Z,1.23
2019-03-01T11:07:01.456Z,1.20
2019-03-01T11:09:29.011Z,0.93
2019-03-01T11:11:56.562Z,1.20
2019-03-01T11:14:24.115Z,1.40
2019-03-01T11:16:51.652Z,1.10
2019-03-01T11:19:19.207Z,1.43
2019-03-01T11:21:46.738Z,1.13
2019-03-01T11:24:14.309Z,1.10
2019-03-01T11:26:41.963Z,1.00
2019-03-01T11:29:09.522Z,1.53
2019-03-01T11:31:37.828Z,1.20
2019-03-01T11:34:05.377Z,1.10
2019-03-01T11:36:32.957Z,1.10
2019-03-01T11:39:00.515Z,1.20
2019-03-01T11:41:28.047Z,2.43
2019-03-01T11:43:55.611Z,1.40
2019-03-01T11:46:23.141Z,2.00
2019-03-01T11:48:50.705Z,2.00
2019-03-01T11:51:18.380Z,2.40
2019-03-01T11:53:45.936Z,1.80
2019-03-01T11:56:13.463Z,1.80
2019-03-01T11:58:41.023Z,1.97
2019-03-01T12:01:16.958Z,1.30
2019-03-01T12:03:36.151Z,1.43
2019-03-01T12:06:04.704Z,1.70
2019-03-01T12:08:32.267Z,1.40
2019-03-01T12:10:59.799Z,1.50
2019-03-01T12:13:27.327Z,1.50
2019-03-01T12:15:54.947Z,1.17
2019-03-01T12:18:22.474Z,1.30
2019-03-01T12:20:50.026Z,1.00
2019-03-01T12:23:17.559Z,1.10
2019-03-01T12:25:45.095Z,1.10
2019-03-01T12:28:12.652Z,1.10
2019-03-01T12:30:40.209Z,1.50
2019-03-01T12:33:07.786Z,1.20
2019-03-01T12:35:35.316Z,1.10
2019-03-01T12:38:02.871Z,1.27
2019-03-01T12:40:31.191Z,1.83
2019-03-01T12:42:58.743Z,3.10
2019-03-01T12:45:26.496Z,15.60
2019-03-01T12:47:54.054Z,17.60
2019-03-01T12:50:21.583Z,4.00
2019-03-01T12:52:49.144Z,3.20
2019-03-01T12:55:21.164Z,8.77
2019-03-01T12:57:48.727Z,4.03
2019-03-01T13:00:16.932Z,3.90
2019-03-01T13:02:44.503Z,3.80
2019-03-01T13:05:12.710Z,4.18
2019-03-01T13:07:40.267Z,8.07
2019-03-01T13:10:08.523Z,6.13
2019-03-01T13:12:36.051Z,5.75
2019-03-01T13:15:03.603Z,13.90
2019-03-01T13:17:33.720Z,9.80
2019-03-01T13:20:01.143Z,3.40
2019-03-01T13:22:27.971Z,7.67
2019-03-01T13:24:54.673Z,12.20
2019-03-01T13:27:22.207Z,12.13
2019-03-01T13:29:49.783Z,4.23
2019-03-01T13:32:19.950Z,4.93
2019-03-01T13:34:45.810Z,3.30
2019-03-01T13:37:19.373Z,4.90
2019-03-01T13:39:40.172Z,6.57
2019-03-01T13:42:10.308Z,2.87
2019-03-01T13:44:36.100Z,2.77
2019-03-01T13:47:05.292Z,2.77
2019-03-01T13:49:31.357Z,2.73
2019-03-01T13:51:58.059Z,2.60
2019-03-01T13:54:25.588Z,3.20
2019-03-01T13:56:53.155Z,5.60
2019-03-01T13:59:20.687Z,8.73
2019-03-01T14:01:48.215Z,4.60
2019-03-01T14:04:16.755Z,6.27
2019-03-01T14:06:44.310Z,8.77
2019-03-01T14:09:11.881Z,8.63
2019-03-01T14:11:39.423Z,5.80
2019-03-01T14:14:08.903Z,4.33
2019-03-01T14:16:36.430Z,3.80
2019-03-01T14:19:04.752Z,4.80
2019-03-01T14:21:33.053Z,5.10
2019-03-01T14:24:00.859Z,3.53
2019-03-01T14:26:28.388Z,4.53
2019-03-01T14:28:56.699Z,3.60
2019-03-01T14:31:24.223Z,4.40
2019-03-01T14:33:52.519Z,3.93
2019-03-01T14:36:20.066Z,3.90
2019-03-01T14:38:47.599Z,3.77
2019-03-01T14:41:15.150Z,3.63
2019-03-01T14:43:42.708Z,4.00
2019-03-01T14:46:10.359Z,3.70
2019-03-01T14:51:11.926Z,3.83
2019-03-01T14:53:39.399Z,3.63
2019-03-01T14:56:08.840Z,3.20
2019-03-01T14:58:38.247Z,3.70
2019-03-01T15:01:15.303Z,3.70
2019-03-01T15:03:42.839Z,3.90
2019-03-01T15:06:11.391Z,3.90
2019-03-01T15:08:40.528Z,4.00
2019-03-01T15:11:08.016Z,4.30
2019-03-01T15:13:35.827Z,3.90
2019-03-01T15:16:04.970Z,4.43
2019-03-01T15:18:32.391Z,8.70
2019-03-01T15:21:02.310Z,3.20
2019-03-01T15:23:26.665Z,4.17
2019-03-01T15:25:54.214Z,3.90
2019-03-01T15:28:21.764Z,3.60
2019-03-01T15:30:49.291Z,3.60
2019-03-01T15:33:16.849Z,4.50
2019-03-01T15:35:44.675Z,4.50
2019-03-01T15:38:13.210Z,4.13
2019-03-01T15:40:40.835Z,4.53
2019-03-01T15:43:09.141Z,4.20
2019-03-01T15:45:36.637Z,4.90
2019-03-01T15:48:05.203Z,5.57
2019-03-01T15:50:31.157Z,4.53
2019-03-01T15:53:00.950Z,5.17
2019-03-01T15:55:29.726Z,5.53
2019-03-01T15:57:57.330Z,5.40
2019-03-01T16:00:25.490Z,5.73
2019-03-01T16:02:53.204Z,6.23
2019-03-01T16:05:19.756Z,6.33
2019-03-01T16:07:47.289Z,6.90
2019-03-01T16:10:16.709Z,6.30
2019-03-01T16:12:44.243Z,6.90
2019-03-01T16:15:14.014Z,5.90
2019-03-01T16:17:41.586Z,5.70
2019-03-01T16:20:11.582Z,4.97
2019-03-01T16:22:39.115Z,5.13
2019-03-01T16:25:07.279Z,5.90
2019-03-01T16:27:34.267Z,5.73
2019-03-01T16:30:01.825Z,6.27
2019-03-01T16:32:29.395Z,34.30
2019-03-01T16:34:57.910Z,9.20
2019-03-01T16:37:26.144Z,26.97
2019-03-01T16:39:56.206Z,17.10
2019-03-01T16:42:20.662Z,10.60
2019-03-01T16:44:48.223Z,11.27
2019-03-01T16:47:15.754Z,9.40
2019-03-01T16:49:43.524Z,12.47
2019-03-01T16:52:11.085Z,14.20
2019-03-01T16:54:38.639Z,14.90
2019-03-01T16:57:06.175Z,7.83
2019-03-01T16:59:33.732Z,9.30
2019-03-01T17:02:06.088Z,8.53
2019-03-01T17:04:29.029Z,9.30
2019-03-01T17:06:56.560Z,9.87
2019-03-01T17:09:24.122Z,10.67
2019-03-01T17:11:51.656Z,13.50
2019-03-01T17:14:20.211Z,16.07
2019-03-01T17:16:47.748Z,13.23
2019-03-01T17:19:15.316Z,14.10
2019-03-01T17:21:42.854Z,13.70
2019-03-01T17:24:12.234Z,12.47
2019-03-01T17:26:39.092Z,14.73
2019-03-01T17:29:06.409Z,16.33
2019-03-01T17:31:35.008Z,12.43
2019-03-01T17:34:04.430Z,11.90
2019-03-01T17:36:30.925Z,9.77
2019-03-01T17:38:58.470Z,9.60
2019-03-01T17:41:26.040Z,10.77
2019-03-01T17:43:53.581Z,11.73
2019-03-01T17:46:21.140Z,9.87
2019-03-01T17:48:48.672Z,10.10
2019-03-01T17:51:18.183Z,9.37
2019-03-01T17:53:46.476Z,9.83
2019-03-01T17:56:11.414Z,10.17
2019-03-01T17:58:38.935Z,9.37
2019-03-01T18:01:06.534Z,12.73
2019-03-01T18:03:34.072Z,13.30
2019-03-01T18:06:01.635Z,12.90
2019-03-01T18:08:29.162Z,13.80
2019-03-01T18:10:56.698Z,14.90
2019-03-01T18:13:24.261Z,16.70
2019-03-01T18:15:51.809Z,17.67
2019-03-01T18:18:20.387Z,18.90
2019-03-01T18:20:47.927Z,21.70
2019-03-01T18:23:16.249Z,24.73
2019-03-01T18:25:43.784Z,23.00
2019-03-01T18:28:11.348Z,22.87
2019-03-01T18:30:38.883Z,25.63
2019-03-01T18:33:06.411Z,28.87
2019-03-01T18:35:33.980Z,28.33
2019-03-01T18:38:01.525Z,29.07
2019-03-01T18:40:29.102Z,29.77
2019-03-01T18:42:57.400Z,30.67
2019-03-01T18:45:24.968Z,30.00
2019-03-01T18:47:52.513Z,31.27
2019-03-01T18:53:14.665Z,31.75
2019-03-01T18:55:42.215Z,32.80
2019-03-01T18:58:10.590Z,30.03
2019-03-01T19:00:38.219Z,29.50
2019-03-01T19:03:06.569Z,29.37
2019-03-01T19:05:36.551Z,31.30
2019-03-01T19:08:04.837Z,30.60
2019-03-01T19:10:29.351Z,35.07
2019-03-01T19:12:56.903Z,31.50
2019-03-01T19:15:24.467Z,31.27
2019-03-01T19:17:52.022Z,29.33
2019-03-01T19:20:24.088Z,30.67
2019-03-01T19:22:51.619Z,32.97
2019-03-01T19:25:21.655Z,35.73
2019-03-01T19:27:47.081Z,31.53
2019-03-01T19:30:15.257Z,30.60
2019-03-01T19:32:42.786Z,30.23
2019-03-01T19:35:10.345Z,30.90
2019-03-01T19:37:37.894Z,32.30
2019-03-01T19:40:07.847Z,31.70
2019-03-01T19:42:34.167Z,35.70
2019-03-01T19:45:04.660Z,75.60
2019-03-01T19:47:29.015Z,101.73
2019-03-01T19:49:56.571Z,54.40
2019-03-01T19:52:24.103Z,38.30
2019-03-01T19:54:51.658Z,33.13
2019-03-01T19:57:19.242Z,36.30
2019-03-01T19:59:49.642Z,37.50
2019-03-01T20:02:14.388Z,38.97
2019-03-01T20:04:41.947Z,35.83
2019-03-01T20:07:09.514Z,35.67
2019-03-01T20:09:39.762Z,32.70
2019-03-01T20:12:05.418Z,30.50
2019-03-01T20:14:33.834Z,31.30
2019-03-01T20:17:00.592Z,32.80
2019-03-01T20:19:28.147Z,32.20
2019-03-01T20:21:56.451Z,33.50
2019-03-01T20:24:24.007Z,33.57
2019-03-01T20:26:51.567Z,32.00
2019-03-01T20:29:19.097Z,32.97
2019-03-01T20:31:46.666Z,33.03
2019-03-01T20:34:14.971Z,33.70
2019-03-01T20:36:42.511Z,31.80
2019-03-01T20:39:11.747Z,31.50
2019-03-01T20:41:40.093Z,33.93
2019-03-01T20:44:05.361Z,34.50
2019-03-01T20:46:32.891Z,34.53
2019-03-01T20:49:00.641Z,35.30
2019-03-01T20:51:28.055Z,37.27
2019-03-01T20:53:55.619Z,34.23
2019-03-01T20:56:23.152Z,35.73
2019-03-01T20:58:50.711Z,36.50
2019-03-01T21:01:18.243Z,35.70
2019-03-01T21:03:45.775Z,34.97
2019-03-01T21:06:13.330Z,33.50
2019-03-01T21:08:40.865Z,35.17
2019-03-01T21:11:10.187Z,35.00
2019-03-01T21:13:36.025Z,33.90
2019-03-01T21:16:03.563Z,33.60
2019-03-01T21:18:34.162Z,37.50
2019-03-01T21:21:00.235Z,36.40
2019-03-01T21:23:28.485Z,36.93
2019-03-01T21:25:56.054Z,34.93
2019-03-01T21:28:23.658Z,36.67
2019-03-01T21:30:52.377Z,36.87
2019-03-01T21:33:24.022Z,32.97
2019-03-01T21:35:51.233Z,34.97
2019-03-01T21:38:16.201Z,34.60
2019-03-01T21:40:43.942Z,35.43
2019-03-01T21:43:11.511Z,35.17
2019-03-01T21:45:39.156Z,35.40
2019-03-01T21:48:06.770Z,35.50
2019-03-01T21:50:34.308Z,35.77
2019-03-01T21:53:05.497Z,35.67
2019-03-01T21:55:30.495Z,35.97
2019-03-01T21:57:58.038Z,36.67
2019-03-01T22:00:29.485Z,35.47
2019-03-01T22:02:54.791Z,39.00
2019-03-01T22:05:22.371Z,39.90
2019-03-01T22:07:49.913Z,42.23
2019-03-01T22:10:17.492Z,36.70
2019-03-01T22:12:45.048Z,36.77
2019-03-01T22:15:25.422Z,35.40
2019-03-01T22:17:50.035Z,36.80
2019-03-01T22:20:18.347Z,36.10
2019-03-01T22:22:45.915Z,36.17
2019-03-01T22:25:13.456Z,40.00
2019-03-01T22:27:41.032Z,36.13
2019-03-01T22:33:02.300Z,38.00
2019-03-01T22:35:29.858Z,36.40
2019-03-01T22:38:00.892Z,36.40
2019-03-01T22:40:28.070Z,34.17
2019-03-01T22:42:53.664Z,34.63
2019-03-01T22:45:21.860Z,36.43
2019-03-01T22:47:49.828Z,33.87
2019-03-01T22:50:18.547Z,34.57
2019-03-01T22:52:46.934Z,36.07
2019-03-01T22:55:15.798Z,36.87
2019-03-01T22:57:45.222Z,38.60
2019-03-01T23:03:42.103Z,38.35
2019-03-01T23:06:11.735Z,39.83
2019-03-01T23:08:38.812Z,37.10
2019-03-01T23:11:07.021Z,36.33
2019-03-01T23:13:34.764Z,37.90
2019-03-01T23:16:02.492Z,38.60
2019-03-01T23:18:31.263Z,36.63
2019-03-01T23:21:01.087Z,39.53
2019-03-01T23:23:26.890Z,36.50
2019-03-01T23:25:54.682Z,39.70
2019-03-01T23:28:22.254Z,41.67
2019-03-01T23:30:49.944Z,39.77
2019-03-01T23:33:17.666Z,39.63
2019-03-01T23:35:45.613Z,38.77
2019-03-01T23:38:14.985Z,40.60
2019-03-01T23:40:41.568Z,40.53
2019-03-01T23:43:09.142Z,42.50
2019-03-01T23:45:36.695Z,39.40
2019-03-01T23:48:04.255Z,40.53
2019-03-01T23:50:34.894Z,38.20
2019-03-01T23:53:00.099Z,39.00
2019-03-01T23:55:26.978Z,38.60
2019-03-01T23:57:54.512Z,37.50
